Hoogeveen Airport

EHHO · Drenthe, 荷兰

使用的METAR站距离机场43 km。
罗盘
风向 的 风向 的 风向 到 风向 080° Hoogeveen Airport 9/27
风: 9 kt, 3 beaufort

9 kt

2 kt
改变
0 ft 1.000 2.000 3.000 4.000 5.000
Cloud Cloud Cloud Cloud Cloud Cloud Cloud Cloud
OVC 600
METAR EHGG 051325Z AUTO 08009KT 050V110 8000 OVC006/// 07/06 Q1014 BECMG 8000

METAR Hoogeveen Airport - EHHO

Hoogeveen Airport是,荷兰中的小机场。 该机场位于纬度52,73079和经度6,51736。 该机场有一条跑道: 9/27. 本场的ICAO机场代码为EHHO。 机场在Amsterdam FIR中。

该航空气象观测是针对Groningen Airport Eelde在2024年3月5日 14:25, 当地时间进行的。

机场观察

风向为080°,速度为9 kt。 风向在050°和110°之间变化。

可见度为8 km。

有乌云密布在600 ft的高度。 破损或更高的上限为600 ft。

温度为7 °C,阵风为3 °C。 露点为6 °C,相对湿度为93%。 海平面上的气压为1014 hPa (QNH)。

发展趋势

  • 变得

    可变方向的风很小或没有。 可见性变为8 km。

白天

今天,太阳从07:10升起,在18:20降落。 这适用于Hoogeveen Airport,世界夏令时可能有所不同。 当地时间与世界标准时间之间的时差为+1 小时。 当前,没有夏令时有效。

公司介绍

在这个机场,你可以找到飞行俱乐部, 飞行学校 和 跳伞中心。 这个机场上的公司有MVVH, Airbet, Egmond Vintage Wings, Vliegclub Hoogeveen 和 Skydive Hoogeveen。

体会

到Vliegles.nl去找飞行课程,跳伞和其他飞行体验。 浏览页面,了解Hoogeveen Airport附近所有可用的活动。 你也可以使用搜索功能来寻找你所在地附近的特定飞行课程、跳伞或其他飞行体验。

跑道

Id 标题 侧风 逆风 侧风 %
9/27 094°-274° 2 kt 9 kt 24 %

逆风成分最大的方向会被突出显示,并用于横风计算。 这并不一定意味着这个方向在使用。

乌云

600 ft OVC 乌云密布

温度 & 天气

温度 7 °C
露点 6 °C
相对湿度 93%
风寒 3 °C
Kp-index 0 (0-9)

白天

日出
07:10
中午
12:45
日落
18:19 (3:38)

小工具

你想在你的网站上有一个关于Hoogeveen Airport的当前航空天气(METAR)的小部件吗?

显示HTML代码
?>